sensor_id;sensor_type;location;lat;lon;timestamp;temperature;humidity
4107;DHT22;21906;50.812;7.132;2023-08-12T00:00:42;22.90;83.60
4107;DHT22;21906;50.812;7.132;2023-08-12T00:03:07;22.90;83.30
4107;DHT22;21906;50.812;7.132;2023-08-12T00:05:33;23.00;83.10
4107;DHT22;21906;50.812;7.132;2023-08-12T00:08:01;23.00;82.90
4107;DHT22;21906;50.812;7.132;2023-08-12T00:10:27;23.00;83.50
4107;DHT22;21906;50.812;7.132;2023-08-12T00:12:52;23.00;83.30
4107;DHT22;21906;50.812;7.132;2023-08-12T00:15:18;23.00;83.30
4107;DHT22;21906;50.812;7.132;2023-08-12T00:17:44;23.00;83.10
4107;DHT22;21906;50.812;7.132;2023-08-12T00:20:10;23.10;83.10
4107;DHT22;21906;50.812;7.132;2023-08-12T00:22:36;23.10;83.10
4107;DHT22;21906;50.812;7.132;2023-08-12T00:25:03;23.10;82.90
4107;DHT22;21906;50.812;7.132;2023-08-12T00:27:28;23.10;82.90
4107;DHT22;21906;50.812;7.132;2023-08-12T00:29:54;23.10;82.90
4107;DHT22;21906;50.812;7.132;2023-08-12T00:32:20;23.00;83.00
4107;DHT22;21906;50.812;7.132;2023-08-12T00:34:45;23.00;82.90
4107;DHT22;21906;50.812;7.132;2023-08-12T00:37:11;23.00;83.20
4107;DHT22;21906;50.812;7.132;2023-08-12T00:39:37;23.00;83.20
4107;DHT22;21906;50.812;7.132;2023-08-12T00:42:02;23.00;83.00
4107;DHT22;21906;50.812;7.132;2023-08-12T00:44:28;23.00;83.00
4107;DHT22;21906;50.812;7.132;2023-08-12T00:46:54;23.00;83.10
4107;DHT22;21906;50.812;7.132;2023-08-12T00:49:21;23.00;83.10
4107;DHT22;21906;50.812;7.132;2023-08-12T00:51:49;23.00;83.00
4107;DHT22;21906;50.812;7.132;2023-08-12T00:54:16;23.00;83.10
4107;DHT22;21906;50.812;7.132;2023-08-12T00:56:42;22.90;83.70
4107;DHT22;21906;50.812;7.132;2023-08-12T00:59:09;22.90;83.80
4107;DHT22;21906;50.812;7.132;2023-08-12T01:01:40;22.80;83.90
4107;DHT22;21906;50.812;7.132;2023-08-12T01:04:09;22.80;83.90
4107;DHT22;21906;50.812;7.132;2023-08-12T01:06:34;22.60;83.80
4107;DHT22;21906;50.812;7.132;2023-08-12T01:09:01;22.60;84.10
4107;DHT22;21906;50.812;7.132;2023-08-12T01:11:36;22.50;84.10
4107;DHT22;21906;50.812;7.132;2023-08-12T01:14:22;22.30;84.70
4107;DHT22;21906;50.812;7.132;2023-08-12T01:16:51;22.40;84.50
4107;DHT22;21906;50.812;7.132;2023-08-12T01:19:33;22.50;84.40
4107;DHT22;21906;50.812;7.132;2023-08-12T01:22:03;22.60;84.20
4107;DHT22;21906;50.812;7.132;2023-08-12T01:24:40;22.60;84.10
4107;DHT22;21906;50.812;7.132;2023-08-12T01:27:07;22.50;83.80
4107;DHT22;21906;50.812;7.132;2023-08-12T01:29:34;22.40;84.00
4107;DHT22;21906;50.812;7.132;2023-08-12T01:35:15;22.40;83.90
4107;DHT22;21906;50.812;7.132;2023-08-12T01:37:43;22.50;83.60
4107;DHT22;21906;50.812;7.132;2023-08-12T01:40:11;22.50;83.50
4107;DHT22;21906;50.812;7.132;2023-08-12T01:42:39;22.60;83.20
4107;DHT22;21906;50.812;7.132;2023-08-12T01:45:05;22.50;83.30
4107;DHT22;21906;50.812;7.132;2023-08-12T01:47:31;22.50;83.40
4107;DHT22;21906;50.812;7.132;2023-08-12T01:49:58;22.50;83.30
4107;DHT22;21906;50.812;7.132;2023-08-12T01:52:24;22.60;83.30
4107;DHT22;21906;50.812;7.132;2023-08-12T01:54:50;22.50;83.40
4107;DHT22;21906;50.812;7.132;2023-08-12T01:57:15;22.50;83.50
4107;DHT22;21906;50.812;7.132;2023-08-12T01:59:41;22.60;83.40
4107;DHT22;21906;50.812;7.132;2023-08-12T02:02:08;22.50;83.60
4107;DHT22;21906;50.812;7.132;2023-08-12T02:04:34;22.50;83.60
4107;DHT22;21906;50.812;7.132;2023-08-12T02:07:02;22.50;83.50
4107;DHT22;21906;50.812;7.132;2023-08-12T02:09:27;22.50;83.40
4107;DHT22;21906;50.812;7.132;2023-08-12T02:11:53;22.40;83.60
4107;DHT22;21906;50.812;7.132;2023-08-12T02:14:19;22.40;83.90
4107;DHT22;21906;50.812;7.132;2023-08-12T02:16:44;22.30;83.90
4107;DHT22;21906;50.812;7.132;2023-08-12T02:19:10;22.20;84.40
4107;DHT22;21906;50.812;7.132;2023-08-12T02:21:35;22.20;84.50
4107;DHT22;21906;50.812;7.132;2023-08-12T02:24:01;22.20;84.30
4107;DHT22;21906;50.812;7.132;2023-08-12T02:26:27;22.20;84.10
4107;DHT22;21906;50.812;7.132;2023-08-12T02:28:52;22.30;84.00
4107;DHT22;21906;50.812;7.132;2023-08-12T02:31:18;22.20;84.30
4107;DHT22;21906;50.812;7.132;2023-08-12T02:33:43;22.20;84.30
4107;DHT22;21906;50.812;7.132;2023-08-12T02:36:09;22.20;84.10
4107;DHT22;21906;50.812;7.132;2023-08-12T02:38:35;22.20;84.10
4107;DHT22;21906;50.812;7.132;2023-08-12T02:41:00;22.30;84.10
4107;DHT22;21906;50.812;7.132;2023-08-12T02:43:26;22.30;84.10
4107;DHT22;21906;50.812;7.132;2023-08-12T02:45:52;22.30;84.00
4107;DHT22;21906;50.812;7.132;2023-08-12T02:48:18;22.30;83.90
4107;DHT22;21906;50.812;7.132;2023-08-12T02:50:44;22.30;83.70
4107;DHT22;21906;50.812;7.132;2023-08-12T02:53:10;22.40;83.60
4107;DHT22;21906;50.812;7.132;2023-08-12T02:55:35;22.30;83.60
4107;DHT22;21906;50.812;7.132;2023-08-12T02:58:03;22.40;83.70
4107;DHT22;21906;50.812;7.132;2023-08-12T03:00:29;22.40;83.60
4107;DHT22;21906;50.812;7.132;2023-08-12T03:02:55;22.30;83.70
4107;DHT22;21906;50.812;7.132;2023-08-12T03:05:21;22.30;83.70
4107;DHT22;21906;50.812;7.132;2023-08-12T03:07:47;22.30;83.70
4107;DHT22;21906;50.812;7.132;2023-08-12T03:10:12;22.30;83.80
4107;DHT22;21906;50.812;7.132;2023-08-12T03:12:38;22.30;83.90
4107;DHT22;21906;50.812;7.132;2023-08-12T03:15:09;22.30;83.90
4107;DHT22;21906;50.812;7.132;2023-08-12T03:17:35;22.40;83.80
4107;DHT22;21906;50.812;7.132;2023-08-12T03:20:01;22.30;83.80
4107;DHT22;21906;50.812;7.132;2023-08-12T03:22:30;22.30;83.70
4107;DHT22;21906;50.812;7.132;2023-08-12T03:24:56;22.40;83.60
4107;DHT22;21906;50.812;7.132;2023-08-12T03:27:21;22.40;83.50
4107;DHT22;21906;50.812;7.132;2023-08-12T03:29:47;22.40;83.50
4107;DHT22;21906;50.812;7.132;2023-08-12T03:32:13;22.30;83.40
4107;DHT22;21906;50.812;7.132;2023-08-12T03:34:39;22.30;83.40
4107;DHT22;21906;50.812;7.132;2023-08-12T03:37:05;22.30;83.50
4107;DHT22;21906;50.812;7.132;2023-08-12T03:39:30;22.30;83.50
4107;DHT22;21906;50.812;7.132;2023-08-12T03:41:56;22.30;83.30
4107;DHT22;21906;50.812;7.132;2023-08-12T03:44:22;22.20;83.30
4107;DHT22;21906;50.812;7.132;2023-08-12T03:46:48;22.20;83.40
4107;DHT22;21906;50.812;7.132;2023-08-12T03:49:13;22.20;83.50
4107;DHT22;21906;50.812;7.132;2023-08-12T03:51:39;22.20;83.40
4107;DHT22;21906;50.812;7.132;2023-08-12T03:54:05;22.20;83.40
4107;DHT22;21906;50.812;7.132;2023-08-12T03:56:30;22.20;83.40
4107;DHT22;21906;50.812;7.132;2023-08-12T03:58:56;22.10;83.30
4107;DHT22;21906;50.812;7.132;2023-08-12T04:01:22;22.10;83.30
4107;DHT22;21906;50.812;7.132;2023-08-12T04:03:47;22.10;83.40
4107;DHT22;21906;50.812;7.132;2023-08-12T04:06:13;22.10;83.30
4107;DHT22;21906;50.812;7.132;2023-08-12T04:08:39;22.10;83.30
4107;DHT22;21906;50.812;7.132;2023-08-12T04:11:05;22.00;83.30
4107;DHT22;21906;50.812;7.132;2023-08-12T04:13:30;21.90;83.30
4107;DHT22;21906;50.812;7.132;2023-08-12T04:15:56;21.90;83.50
4107;DHT22;21906;50.812;7.132;2023-08-12T04:18:22;21.90;83.70
4107;DHT22;21906;50.812;7.132;2023-08-12T04:20:52;21.90;83.70
4107;DHT22;21906;50.812;7.132;2023-08-12T04:23:17;21.80;83.60
4107;DHT22;21906;50.812;7.132;2023-08-12T04:25:44;21.80;83.60
4107;DHT22;21906;50.812;7.132;2023-08-12T04:28:11;21.70;83.70
4107;DHT22;21906;50.812;7.132;2023-08-12T04:30:44;21.60;84.10
4107;DHT22;21906;50.812;7.132;2023-08-12T04:33:10;21.60;84.10
4107;DHT22;21906;50.812;7.132;2023-08-12T04:35:36;21.70;84.10
4107;DHT22;21906;50.812;7.132;2023-08-12T04:38:01;21.70;84.00
4107;DHT22;21906;50.812;7.132;2023-08-12T04:40:27;21.70;84.00
4107;DHT22;21906;50.812;7.132;2023-08-12T04:42:54;21.70;83.90
4107;DHT22;21906;50.812;7.132;2023-08-12T04:45:19;21.70;83.90
4107;DHT22;21906;50.812;7.132;2023-08-12T04:47:45;21.70;83.80
4107;DHT22;21906;50.812;7.132;2023-08-12T04:50:10;21.70;83.80
4107;DHT22;21906;50.812;7.132;2023-08-12T04:52:36;21.80;83.80
4107;DHT22;21906;50.812;7.132;2023-08-12T04:55:02;21.80;83.80
4107;DHT22;21906;50.812;7.132;2023-08-12T04:57:28;21.80;83.80
4107;DHT22;21906;50.812;7.132;2023-08-12T04:59:54;21.80;83.80
4107;DHT22;21906;50.812;7.132;2023-08-12T05:02:20;21.70;84.00
4107;DHT22;21906;50.812;7.132;2023-08-12T05:04:48;21.70;84.00
4107;DHT22;21906;50.812;7.132;2023-08-12T05:07:14;21.70;84.10
4107;DHT22;21906;50.812;7.132;2023-08-12T05:09:39;21.70;84.30
4107;DHT22;21906;50.812;7.132;2023-08-12T05:12:05;21.60;84.40
4107;DHT22;21906;50.812;7.132;2023-08-12T05:14:31;21.70;84.30
4107;DHT22;21906;50.812;7.132;2023-08-12T05:16:57;21.80;84.20
4107;DHT22;21906;50.812;7.132;2023-08-12T05:19:22;21.90;84.20
4107;DHT22;21906;50.812;7.132;2023-08-12T05:21:48;21.90;84.10
4107;DHT22;21906;50.812;7.132;2023-08-12T05:24:13;22.00;84.10
4107;DHT22;21906;50.812;7.132;2023-08-12T05:26:39;22.10;83.90
4107;DHT22;21906;50.812;7.132;2023-08-12T05:29:05;22.20;83.90
4107;DHT22;21906;50.812;7.132;2023-08-12T05:31:30;22.20;83.90
4107;DHT22;21906;50.812;7.132;2023-08-12T05:33:56;22.30;83.80
4107;DHT22;21906;50.812;7.132;2023-08-12T05:36:21;22.40;83.80
4107;DHT22;21906;50.812;7.132;2023-08-12T05:38:47;22.40;83.40
4107;DHT22;21906;50.812;7.132;2023-08-12T05:41:12;22.40;83.20
4107;DHT22;21906;50.812;7.132;2023-08-12T05:43:39;22.30;83.40
4107;DHT22;21906;50.812;7.132;2023-08-12T05:46:04;22.40;83.40
4107;DHT22;21906;50.812;7.132;2023-08-12T05:48:30;22.40;83.50
4107;DHT22;21906;50.812;7.132;2023-08-12T05:50:55;22.40;83.40
4107;DHT22;21906;50.812;7.132;2023-08-12T05:53:21;22.40;83.50
4107;DHT22;21906;50.812;7.132;2023-08-12T05:55:47;22.40;83.60
4107;DHT22;21906;50.812;7.132;2023-08-12T05:58:13;22.40;83.70
4107;DHT22;21906;50.812;7.132;2023-08-12T06:00:38;22.40;83.80
4107;DHT22;21906;50.812;7.132;2023-08-12T06:03:04;22.40;83.90
4107;DHT22;21906;50.812;7.132;2023-08-12T06:05:29;22.40;84.00
4107;DHT22;21906;50.812;7.132;2023-08-12T06:07:55;22.30;84.00
4107;DHT22;21906;50.812;7.132;2023-08-12T06:10:21;22.30;84.10
4107;DHT22;21906;50.812;7.132;2023-08-12T06:12:46;22.30;84.30
4107;DHT22;21906;50.812;7.132;2023-08-12T06:15:12;22.30;84.50
4107;DHT22;21906;50.812;7.132;2023-08-12T06:17:38;22.20;84.50
4107;DHT22;21906;50.812;7.132;2023-08-12T06:20:03;22.20;84.70
4107;DHT22;21906;50.812;7.132;2023-08-12T06:22:29;22.20;85.00
4107;DHT22;21906;50.812;7.132;2023-08-12T06:24:55;22.10;85.20
4107;DHT22;21906;50.812;7.132;2023-08-12T06:27:20;22.10;85.40
4107;DHT22;21906;50.812;7.132;2023-08-12T06:29:46;22.10;85.30
4107;DHT22;21906;50.812;7.132;2023-08-12T06:32:12;22.10;85.10
4107;DHT22;21906;50.812;7.132;2023-08-12T06:34:40;22.00;84.50
4107;DHT22;21906;50.812;7.132;2023-08-12T06:37:06;22.00;84.00
4107;DHT22;21906;50.812;7.132;2023-08-12T06:39:31;22.00;83.90
4107;DHT22;21906;50.812;7.132;2023-08-12T06:41:57;21.90;84.00
4107;DHT22;21906;50.812;7.132;2023-08-12T06:44:24;22.00;84.10
4107;DHT22;21906;50.812;7.132;2023-08-12T06:46:50;22.00;84.20
4107;DHT22;21906;50.812;7.132;2023-08-12T06:49:16;22.00;84.00
4107;DHT22;21906;50.812;7.132;2023-08-12T06:51:41;22.00;83.70
4107;DHT22;21906;50.812;7.132;2023-08-12T06:54:07;22.10;83.60
4107;DHT22;21906;50.812;7.132;2023-08-12T06:56:33;22.10;83.60
4107;DHT22;21906;50.812;7.132;2023-08-12T06:58:58;22.20;83.60
4107;DHT22;21906;50.812;7.132;2023-08-12T07:01:24;22.30;83.60
4107;DHT22;21906;50.812;7.132;2023-08-12T07:03:50;22.30;83.50
4107;DHT22;21906;50.812;7.132;2023-08-12T07:06:15;22.40;83.50
4107;DHT22;21906;50.812;7.132;2023-08-12T07:08:41;22.40;83.40
4107;DHT22;21906;50.812;7.132;2023-08-12T07:11:07;22.50;83.40
4107;DHT22;21906;50.812;7.132;2023-08-12T07:13:32;22.60;83.10
4107;DHT22;21906;50.812;7.132;2023-08-12T07:15:58;22.60;82.90
4107;DHT22;21906;50.812;7.132;2023-08-12T07:18:24;22.60;82.90
4107;DHT22;21906;50.812;7.132;2023-08-12T07:20:50;22.70;82.40
4107;DHT22;21906;50.812;7.132;2023-08-12T07:23:16;22.60;81.90
4107;DHT22;21906;50.812;7.132;2023-08-12T07:25:41;22.80;82.10
4107;DHT22;21906;50.812;7.132;2023-08-12T07:28:07;22.80;82.10
4107;DHT22;21906;50.812;7.132;2023-08-12T07:30:34;22.80;82.10
4107;DHT22;21906;50.812;7.132;2023-08-12T07:33:01;22.90;81.70
4107;DHT22;21906;50.812;7.132;2023-08-12T07:35:27;23.00;81.30
4107;DHT22;21906;50.812;7.132;2023-08-12T07:37:52;23.10;81.10
4107;DHT22;21906;50.812;7.132;2023-08-12T07:40:18;23.10;80.90
4107;DHT22;21906;50.812;7.132;2023-08-12T07:42:44;23.10;81.20
4107;DHT22;21906;50.812;7.132;2023-08-12T07:45:10;23.10;81.00
4107;DHT22;21906;50.812;7.132;2023-08-12T07:47:35;23.10;80.90
4107;DHT22;21906;50.812;7.132;2023-08-12T07:50:01;23.00;80.60
4107;DHT22;21906;50.812;7.132;2023-08-12T07:52:27;23.10;80.50
4107;DHT22;21906;50.812;7.132;2023-08-12T07:54:52;23.10;80.50
4107;DHT22;21906;50.812;7.132;2023-08-12T07:57:18;23.10;80.30
4107;DHT22;21906;50.812;7.132;2023-08-12T07:59:49;23.20;80.00
4107;DHT22;21906;50.812;7.132;2023-08-12T08:02:15;23.20;80.20
4107;DHT22;21906;50.812;7.132;2023-08-12T08:04:41;23.30;80.20
4107;DHT22;21906;50.812;7.132;2023-08-12T08:07:06;23.40;79.90
4107;DHT22;21906;50.812;7.132;2023-08-12T08:09:32;23.40;79.40
4107;DHT22;21906;50.812;7.132;2023-08-12T08:11:59;23.50;79.30
4107;DHT22;21906;50.812;7.132;2023-08-12T08:14:26;23.50;78.70
4107;DHT22;21906;50.812;7.132;2023-08-12T08:16:53;23.50;78.90
4107;DHT22;21906;50.812;7.132;2023-08-12T08:19:18;23.50;79.10
4107;DHT22;21906;50.812;7.132;2023-08-12T08:21:44;23.50;79.20
4107;DHT22;21906;50.812;7.132;2023-08-12T08:24:10;23.50;78.80
4107;DHT22;21906;50.812;7.132;2023-08-12T08:26:39;23.50;78.80
4107;DHT22;21906;50.812;7.132;2023-08-12T08:29:06;23.60;78.50
4107;DHT22;21906;50.812;7.132;2023-08-12T08:31:32;23.60;77.80
4107;DHT22;21906;50.812;7.132;2023-08-12T08:33:58;23.70;77.60
4107;DHT22;21906;50.812;7.132;2023-08-12T08:36:23;23.70;76.70
4107;DHT22;21906;50.812;7.132;2023-08-12T08:38:50;23.70;76.80
4107;DHT22;21906;50.812;7.132;2023-08-12T08:41:16;23.80;76.70
4107;DHT22;21906;50.812;7.132;2023-08-12T08:43:43;23.90;77.10
4107;DHT22;21906;50.812;7.132;2023-08-12T08:46:15;23.90;77.30
4107;DHT22;21906;50.812;7.132;2023-08-12T08:48:42;23.90;77.20
4107;DHT22;21906;50.812;7.132;2023-08-12T08:51:09;24.10;76.50
4107;DHT22;21906;50.812;7.132;2023-08-12T08:53:37;24.10;76.70
4107;DHT22;21906;50.812;7.132;2023-08-12T08:56:05;24.10;77.10
4107;DHT22;21906;50.812;7.132;2023-08-12T08:58:32;24.10;76.60
4107;DHT22;21906;50.812;7.132;2023-08-12T09:00:58;24.20;76.50
4107;DHT22;21906;50.812;7.132;2023-08-12T09:03:25;24.20;76.90
4107;DHT22;21906;50.812;7.132;2023-08-12T09:05:52;24.20;76.90
4107;DHT22;21906;50.812;7.132;2023-08-12T09:08:18;24.20;77.20
4107;DHT22;21906;50.812;7.132;2023-08-12T09:10:46;24.30;77.20
4107;DHT22;21906;50.812;7.132;2023-08-12T09:13:12;24.40;76.50
4107;DHT22;21906;50.812;7.132;2023-08-12T09:15:39;24.30;76.10
4107;DHT22;21906;50.812;7.132;2023-08-12T09:18:05;24.30;76.50
4107;DHT22;21906;50.812;7.132;2023-08-12T09:20:34;24.30;76.60
4107;DHT22;21906;50.812;7.132;2023-08-12T09:23:01;24.20;76.00
4107;DHT22;21906;50.812;7.132;2023-08-12T09:25:28;24.20;75.90
4107;DHT22;21906;50.812;7.132;2023-08-12T09:28:00;24.10;75.60
4107;DHT22;21906;50.812;7.132;2023-08-12T09:30:29;24.10;75.70
4107;DHT22;21906;50.812;7.132;2023-08-12T09:33:01;24.20;75.10
4107;DHT22;21906;50.812;7.132;2023-08-12T09:35:36;24.20;75.30
4107;DHT22;21906;50.812;7.132;2023-08-12T09:38:03;24.20;75.50
4107;DHT22;21906;50.812;7.132;2023-08-12T09:40:31;24.20;75.30
4107;DHT22;21906;50.812;7.132;2023-08-12T09:42:58;24.40;74.90
4107;DHT22;21906;50.812;7.132;2023-08-12T09:45:25;24.40;74.60
4107;DHT22;21906;50.812;7.132;2023-08-12T09:47:50;24.50;74.20
4107;DHT22;21906;50.812;7.132;2023-08-12T09:50:17;24.60;73.80
4107;DHT22;21906;50.812;7.132;2023-08-12T09:52:43;24.60;73.70
4107;DHT22;21906;50.812;7.132;2023-08-12T09:55:11;24.70;73.60
4107;DHT22;21906;50.812;7.132;2023-08-12T09:57:42;24.70;73.20
4107;DHT22;21906;50.812;7.132;2023-08-12T10:00:10;24.80;72.70
4107;DHT22;21906;50.812;7.132;2023-08-12T10:02:43;24.90;72.20
4107;DHT22;21906;50.812;7.132;2023-08-12T10:05:12;24.90;72.60
4107;DHT22;21906;50.812;7.132;2023-08-12T10:07:40;25.00;72.60
4107;DHT22;21906;50.812;7.132;2023-08-12T10:10:06;25.10;72.00
4107;DHT22;21906;50.812;7.132;2023-08-12T10:12:34;25.00;71.50
4107;DHT22;21906;50.812;7.132;2023-08-12T10:15:01;24.90;71.80
4107;DHT22;21906;50.812;7.132;2023-08-12T10:17:28;24.90;72.10
4107;DHT22;21906;50.812;7.132;2023-08-12T10:19:55;24.90;72.10
4107;DHT22;21906;50.812;7.132;2023-08-12T10:22:22;24.90;72.70
4107;DHT22;21906;50.812;7.132;2023-08-12T10:24:49;24.80;72.70
4107;DHT22;21906;50.812;7.132;2023-08-12T10:27:17;24.80;72.50
4107;DHT22;21906;50.812;7.132;2023-08-12T10:29:43;24.80;72.20
4107;DHT22;21906;50.812;7.132;2023-08-12T10:32:09;24.90;72.90
4107;DHT22;21906;50.812;7.132;2023-08-12T10:34:35;24.90;73.20
4107;DHT22;21906;50.812;7.132;2023-08-12T10:37:02;24.90;72.30
4107;DHT22;21906;50.812;7.132;2023-08-12T10:39:31;25.10;72.40
4107;DHT22;21906;50.812;7.132;2023-08-12T10:41:57;25.10;71.20
4107;DHT22;21906;50.812;7.132;2023-08-12T10:44:49;25.10;71.60
4107;DHT22;21906;50.812;7.132;2023-08-12T10:47:13;25.20;71.00
4107;DHT22;21906;50.812;7.132;2023-08-12T10:49:43;25.40;70.70
4107;DHT22;21906;50.812;7.132;2023-08-12T10:52:28;25.50;71.70
4107;DHT22;21906;50.812;7.132;2023-08-12T10:54:54;25.70;71.30
4107;DHT22;21906;50.812;7.132;2023-08-12T10:57:35;25.90;70.30
4107;DHT22;21906;50.812;7.132;2023-08-12T11:00:04;26.10;68.60
4107;DHT22;21906;50.812;7.132;2023-08-12T11:02:32;26.00;67.70
4107;DHT22;21906;50.812;7.132;2023-08-12T11:05:08;25.90;68.70
4107;DHT22;21906;50.812;7.132;2023-08-12T11:07:43;25.90;69.40
4107;DHT22;21906;50.812;7.132;2023-08-12T11:10:24;25.70;69.60
4107;DHT22;21906;50.812;7.132;2023-08-12T11:12:55;25.70;69.30
4107;DHT22;21906;50.812;7.132;2023-08-12T11:17:56;25.40;70.10
4107;DHT22;21906;50.812;7.132;2023-08-12T11:20:22;25.30;71.10
4107;DHT22;21906;50.812;7.132;2023-08-12T11:22:49;25.30;71.40
4107;DHT22;21906;50.812;7.132;2023-08-12T11:25:15;25.20;71.00
4107;DHT22;21906;50.812;7.132;2023-08-12T11:27:46;25.00;71.50
4107;DHT22;21906;50.812;7.132;2023-08-12T11:30:19;24.90;71.80
4107;DHT22;21906;50.812;7.132;2023-08-12T11:32:48;24.80;72.20
4107;DHT22;21906;50.812;7.132;2023-08-12T11:35:15;24.80;72.70
4107;DHT22;21906;50.812;7.132;2023-08-12T11:37:43;24.80;72.90
4107;DHT22;21906;50.812;7.132;2023-08-12T11:40:11;24.70;73.10
4107;DHT22;21906;50.812;7.132;2023-08-12T11:42:41;24.70;73.30
4107;DHT22;21906;50.812;7.132;2023-08-12T11:45:07;24.80;73.30
4107;DHT22;21906;50.812;7.132;2023-08-12T11:47:34;24.90;72.60
4107;DHT22;21906;50.812;7.132;2023-08-12T11:50:07;24.90;72.70
4107;DHT22;21906;50.812;7.132;2023-08-12T11:52:34;24.90;72.30
4107;DHT22;21906;50.812;7.132;2023-08-12T11:55:01;25.00;72.40
4107;DHT22;21906;50.812;7.132;2023-08-12T11:57:27;25.20;73.40
4107;DHT22;21906;50.812;7.132;2023-08-12T12:00:04;25.40;71.70
4107;DHT22;21906;50.812;7.132;2023-08-12T12:05:17;25.60;70.90
4107;DHT22;21906;50.812;7.132;2023-08-12T12:07:43;25.60;70.60
4107;DHT22;21906;50.812;7.132;2023-08-12T12:10:19;25.60;68.80
4107;DHT22;21906;50.812;7.132;2023-08-12T12:12:45;25.60;69.20
4107;DHT22;21906;50.812;7.132;2023-08-12T12:15:13;25.60;69.40
4107;DHT22;21906;50.812;7.132;2023-08-12T12:17:40;25.60;69.60
4107;DHT22;21906;50.812;7.132;2023-08-12T12:20:07;25.80;68.00
4107;DHT22;21906;50.812;7.132;2023-08-12T12:22:36;25.80;67.90
4107;DHT22;21906;50.812;7.132;2023-08-12T12:25:13;25.90;66.40
4107;DHT22;21906;50.812;7.132;2023-08-12T12:27:40;25.90;65.80
4107;DHT22;21906;50.812;7.132;2023-08-12T12:30:11;26.00;65.80
4107;DHT22;21906;50.812;7.132;2023-08-12T12:32:37;26.00;65.60
4107;DHT22;21906;50.812;7.132;2023-08-12T12:35:04;26.00;64.10
4107;DHT22;21906;50.812;7.132;2023-08-12T12:37:32;26.10;64.60
4107;DHT22;21906;50.812;7.132;2023-08-12T12:39:58;26.00;64.50
4107;DHT22;21906;50.812;7.132;2023-08-12T12:42:24;26.00;65.40
4107;DHT22;21906;50.812;7.132;2023-08-12T12:44:50;26.00;64.90
4107;DHT22;21906;50.812;7.132;2023-08-12T12:47:16;26.00;64.20
4107;DHT22;21906;50.812;7.132;2023-08-12T12:49:42;26.00;64.30
4107;DHT22;21906;50.812;7.132;2023-08-12T12:52:08;26.00;64.70
4107;DHT22;21906;50.812;7.132;2023-08-12T12:54:34;25.90;64.70
4107;DHT22;21906;50.812;7.132;2023-08-12T12:57:00;25.80;65.20
4107;DHT22;21906;50.812;7.132;2023-08-12T12:59:27;25.80;65.60
4107;DHT22;21906;50.812;7.132;2023-08-12T13:01:52;25.60;66.10
4107;DHT22;21906;50.812;7.132;2023-08-12T13:04:18;25.60;66.00
4107;DHT22;21906;50.812;7.132;2023-08-12T13:06:44;25.50;66.30
4107;DHT22;21906;50.812;7.132;2023-08-12T13:09:10;25.70;66.80
4107;DHT22;21906;50.812;7.132;2023-08-12T13:11:36;25.80;66.20
4107;DHT22;21906;50.812;7.132;2023-08-12T13:14:03;26.00;65.30
4107;DHT22;21906;50.812;7.132;2023-08-12T13:16:29;26.20;65.10
4107;DHT22;21906;50.812;7.132;2023-08-12T13:18:55;26.50;64.20
4107;DHT22;21906;50.812;7.132;2023-08-12T13:21:24;26.60;63.10
4107;DHT22;21906;50.812;7.132;2023-08-12T13:23:50;26.70;63.30
4107;DHT22;21906;50.812;7.132;2023-08-12T13:26:16;26.80;62.30
4107;DHT22;21906;50.812;7.132;2023-08-12T13:28:43;26.70;63.00
4107;DHT22;21906;50.812;7.132;2023-08-12T13:31:09;26.80;63.40
4107;DHT22;21906;50.812;7.132;2023-08-12T13:33:35;26.70;63.20
4107;DHT22;21906;50.812;7.132;2023-08-12T13:36:01;26.70;63.30
4107;DHT22;21906;50.812;7.132;2023-08-12T13:38:26;26.90;63.30
4107;DHT22;21906;50.812;7.132;2023-08-12T13:40:52;27.10;63.30
4107;DHT22;21906;50.812;7.132;2023-08-12T13:43:18;27.20;61.60
4107;DHT22;21906;50.812;7.132;2023-08-12T13:45:43;27.10;62.80
4107;DHT22;21906;50.812;7.132;2023-08-12T13:48:09;27.00;62.30
4107;DHT22;21906;50.812;7.132;2023-08-12T13:50:35;26.90;62.90
4107;DHT22;21906;50.812;7.132;2023-08-12T13:53:02;26.70;64.80
4107;DHT22;21906;50.812;7.132;2023-08-12T13:55:28;26.40;66.70
4107;DHT22;21906;50.812;7.132;2023-08-12T13:57:54;26.40;67.60
4107;DHT22;21906;50.812;7.132;2023-08-12T14:00:20;26.30;67.00
4107;DHT22;21906;50.812;7.132;2023-08-12T14:02:46;26.30;67.70
4107;DHT22;21906;50.812;7.132;2023-08-12T14:05:14;26.60;68.20
4107;DHT22;21906;50.812;7.132;2023-08-12T14:07:40;26.70;67.20
4107;DHT22;21906;50.812;7.132;2023-08-12T14:10:07;27.00;66.60
4107;DHT22;21906;50.812;7.132;2023-08-12T14:12:33;27.20;66.60
4107;DHT22;21906;50.812;7.132;2023-08-12T14:14:59;27.30;65.90
4107;DHT22;21906;50.812;7.132;2023-08-12T14:17:28;27.40;64.90
4107;DHT22;21906;50.812;7.132;2023-08-12T14:19:54;27.80;66.00
4107;DHT22;21906;50.812;7.132;2023-08-12T14:22:20;28.10;62.40
4107;DHT22;21906;50.812;7.132;2023-08-12T14:24:47;28.20;63.50
4107;DHT22;21906;50.812;7.132;2023-08-12T14:27:16;28.40;59.10
4107;DHT22;21906;50.812;7.132;2023-08-12T14:29:45;28.60;59.60
4107;DHT22;21906;50.812;7.132;2023-08-12T14:32:11;28.50;58.30
4107;DHT22;21906;50.812;7.132;2023-08-12T14:34:37;27.90;58.80
4107;DHT22;21906;50.812;7.132;2023-08-12T14:37:03;27.70;59.60
4107;DHT22;21906;50.812;7.132;2023-08-12T14:39:29;27.90;59.40
4107;DHT22;21906;50.812;7.132;2023-08-12T14:41:54;28.10;59.40
4107;DHT22;21906;50.812;7.132;2023-08-12T14:44:20;28.00;58.70
4107;DHT22;21906;50.812;7.132;2023-08-12T14:46:47;28.40;58.10
4107;DHT22;21906;50.812;7.132;2023-08-12T14:49:13;28.70;57.20
4107;DHT22;21906;50.812;7.132;2023-08-12T14:51:38;28.70;56.30
4107;DHT22;21906;50.812;7.132;2023-08-12T14:54:04;28.50;55.60
4107;DHT22;21906;50.812;7.132;2023-08-12T14:56:30;28.40;57.00
4107;DHT22;21906;50.812;7.132;2023-08-12T14:58:56;28.10;57.90
4107;DHT22;21906;50.812;7.132;2023-08-12T15:01:22;28.50;57.70
4107;DHT22;21906;50.812;7.132;2023-08-12T15:03:49;29.20;56.20
4107;DHT22;21906;50.812;7.132;2023-08-12T15:06:15;30.00;52.50
4107;DHT22;21906;50.812;7.132;2023-08-12T15:08:42;30.20;51.40
4107;DHT22;21906;50.812;7.132;2023-08-12T15:11:09;30.40;50.20
4107;DHT22;21906;50.812;7.132;2023-08-12T15:13:36;30.80;48.80
4107;DHT22;21906;50.812;7.132;2023-08-12T15:16:02;31.30;46.80
4107;DHT22;21906;50.812;7.132;2023-08-12T15:18:28;31.60;45.80
4107;DHT22;21906;50.812;7.132;2023-08-12T15:20:54;31.30;46.40
4107;DHT22;21906;50.812;7.132;2023-08-12T15:23:20;30.90;47.00
4107;DHT22;21906;50.812;7.132;2023-08-12T15:25:45;30.10;48.00
4107;DHT22;21906;50.812;7.132;2023-08-12T15:28:12;29.70;48.50
4107;DHT22;21906;50.812;7.132;2023-08-12T15:30:38;29.50;49.30
4107;DHT22;21906;50.812;7.132;2023-08-12T15:33:04;29.20;50.00
4107;DHT22;21906;50.812;7.132;2023-08-12T15:35:30;28.90;51.80
4107;DHT22;21906;50.812;7.132;2023-08-12T15:37:56;28.70;52.00
4107;DHT22;21906;50.812;7.132;2023-08-12T15:40:22;28.30;52.30
4107;DHT22;21906;50.812;7.132;2023-08-12T15:42:48;27.80;53.40
4107;DHT22;21906;50.812;7.132;2023-08-12T15:45:15;27.30;54.80
4107;DHT22;21906;50.812;7.132;2023-08-12T15:47:41;27.10;55.30
4107;DHT22;21906;50.812;7.132;2023-08-12T15:50:07;26.90;56.10